Columbus, IN (47201)

5:55 AM EST on January 23, 2017 (GMT -0500)
Jackson St. | | Change Station

Elev 627 ft 39.21 °N, 85.92 °W | Updated 5 seconds ago

Overcast
Overcast
48.3 °F
Feels Like 46 °F
N
5.0
Wind Variable Wind from NE
Gusts 15.0 mph

Today
High -- | Low -- °F
--% Chance of Precip.
Yesterday
High -- | Low -- °F
Precip. -- in
Pressure 29.51 in
Visibility 1.5 miles
Clouds Overcast 300 ft
Windchill 46 °F
Dew Point 47 °F
Humidity 94%
Rainfall 0.00 in
Snow Depth Not available.
7:57 AM 5:54 PM
Waning Crescent, 19% visible
SPECI KGEZ 231041Z AUTO 35016G22KT 1 1/2SM BR OVC003 09/08 A2951 RMK AO2 T00890078 $
Pressure 29.51 in
Visibility 1.5 miles
Clouds Overcast 300 ft
Windchill 46 °F
Dew Point 47 °F
Humidity 94%
Rainfall 0.00 in
Snow Depth Not available.
7:57 AM 5:54 PM
Waning Crescent, 19% visible
SPECI KGEZ 231041Z AUTO 35016G22KT 1 1/2SM BR OVC003 09/08 A2951 RMK AO2 T00890078 $

Get Your Daily Forecast Email!

Thanks for signing up!

Be on the lookout for a verification email in your inbox.

You'll start receiving the daily forecast at 8 AM.

×

10-Day Weather Forecast

Almanac

Astronomy

Jan. 23, 2017 Rise Set
Actual Time
Civil Twilight
Nautical Twilight
Astronomical Twilight
Moon
Length of Visible Light
Length of Day
Tomorrow will be .
, % of the Moon is Illuminated

Today's Extremes

State Highs State Lows

Community

WunderPhotos

Upload Photos

1,962,540 photos uploaded!

WunderBlog® & News

Nearby

Air Quality

  Air Quality AQ Index Pollutant
Not available.

Snow Depth

Station Depth Elevation

Earthquake Activity

City Distance Mag. Time & Date
Minimum magnitude displayed is 2.5.

Coastal Water Temperatures

Place Temperature

Stations

Nearby Weather Stations

Station Location Temp. Windchill Dew Point Humidity Wind Precip. Elev Updated Type
                   

Watches & Warnings

There are currently no watches in effect.